createdAt,value
2018-06-25T00:02:00.276Z,66.80
2018-06-25T00:04:30.064Z,66.40
2018-06-25T00:06:59.868Z,66.20
2018-06-25T00:09:29.636Z,67.00
2018-06-25T00:11:59.307Z,66.10
2018-06-25T00:14:29.161Z,66.80
2018-06-25T00:16:58.926Z,66.50
2018-06-25T00:19:39.777Z,66.60
2018-06-25T00:22:11.719Z,67.20
2018-06-25T00:27:12.234Z,66.30
2018-06-25T00:29:41.964Z,67.20
2018-06-25T00:32:11.706Z,67.20
2018-06-25T00:34:41.485Z,67.40
2018-06-25T00:37:11.257Z,68.30
2018-06-25T00:39:41.111Z,68.80
2018-06-25T00:42:10.868Z,69.10
2018-06-25T00:44:40.572Z,68.40
2018-06-25T00:47:10.385Z,69.10
2018-06-25T00:49:40.118Z,68.60
2018-06-25T00:52:09.969Z,68.70
2018-06-25T00:54:39.522Z,69.80
2018-06-25T00:57:09.268Z,70.50
2018-06-25T00:59:53.564Z,71.00
2018-06-25T01:02:23.662Z,69.60
2018-06-25T01:04:53.289Z,71.20
2018-06-25T01:07:22.963Z,72.40
2018-06-25T01:09:52.840Z,72.60
2018-06-25T01:12:22.706Z,71.50
2018-06-25T01:14:52.493Z,71.50
2018-06-25T01:17:22.125Z,71.30
2018-06-25T01:19:51.873Z,70.50
2018-06-25T01:22:21.564Z,72.00
2018-06-25T01:24:51.253Z,73.10
2018-06-25T01:27:21.112Z,73.30
2018-06-25T01:29:50.981Z,73.90
2018-06-25T01:34:49.791Z,74.10
2018-06-25T01:37:19.490Z,72.90
2018-06-25T01:39:49.244Z,73.30
2018-06-25T01:42:19.118Z,72.90
2018-06-25T01:44:48.666Z,72.90
2018-06-25T01:47:18.530Z,73.30
2018-06-25T01:49:48.184Z,74.20
2018-06-25T01:52:17.876Z,73.60
2018-06-25T01:54:47.568Z,73.40
2018-06-25T01:59:46.305Z,74.60
2018-06-25T02:02:16.181Z,72.20
2018-06-25T02:04:45.830Z,74.10
2018-06-25T02:07:15.700Z,73.80
2018-06-25T02:09:45.261Z,74.10
2018-06-25T02:12:15.066Z,74.20
2018-06-25T02:14:44.823Z,74.00
2018-06-25T02:17:14.456Z,74.20
2018-06-25T02:19:44.240Z,74.40
2018-06-25T02:22:14.120Z,75.00
2018-06-25T02:24:44.076Z,75.30
2018-06-25T02:27:13.735Z,75.10
2018-06-25T02:29:43.704Z,74.70
2018-06-25T02:32:13.464Z,73.80
2018-06-25T02:34:43.364Z,74.10
2018-06-25T02:37:13.056Z,75.00
2018-06-25T02:39:42.846Z,74.90
2018-06-25T02:42:12.488Z,75.80
2018-06-25T02:44:42.467Z,74.40
2018-06-25T02:47:12.096Z,75.30
2018-06-25T02:49:41.786Z,75.10
2018-06-25T02:52:11.636Z,75.10
2018-06-25T02:54:41.412Z,75.40
2018-06-25T02:57:11.274Z,75.80
2018-06-25T02:59:41.136Z,76.20
2018-06-25T03:02:10.789Z,75.30
2018-06-25T03:04:40.560Z,76.10
2018-06-25T03:07:10.344Z,76.40
2018-06-25T03:09:40.184Z,76.40
2018-06-25T03:12:09.844Z,75.60
2018-06-25T03:14:39.809Z,76.70
2018-06-25T03:17:09.471Z,76.10
2018-06-25T03:19:39.237Z,74.90
2018-06-25T03:22:08.879Z,74.90
2018-06-25T03:24:38.468Z,75.30
2018-06-25T03:27:08.264Z,74.50
2018-06-25T03:29:37.915Z,73.60
2018-06-25T03:32:07.885Z,73.80
2018-06-25T03:34:37.951Z,73.40
2018-06-25T03:37:07.858Z,73.20
2018-06-25T03:39:37.540Z,72.70
2018-06-25T03:42:07.455Z,73.10
2018-06-25T03:44:37.176Z,74.40
2018-06-25T03:47:06.853Z,73.40
2018-06-25T03:49:36.605Z,73.30
2018-06-25T03:52:06.473Z,72.00
2018-06-25T03:57:05.523Z,72.90
2018-06-25T03:59:35.198Z,74.10
2018-06-25T04:02:04.927Z,75.10
2018-06-25T04:04:34.717Z,73.80
2018-06-25T04:07:04.477Z,74.40
2018-06-25T04:09:34.346Z,74.80
2018-06-25T04:12:04.134Z,74.90
2018-06-25T04:14:33.886Z,75.30
2018-06-25T04:17:03.516Z,75.70
2018-06-25T04:19:33.310Z,75.80
2018-06-25T04:22:02.992Z,75.20
2018-06-25T04:24:32.550Z,74.10
2018-06-25T04:27:02.313Z,75.10
2018-06-25T04:29:31.959Z,74.70
2018-06-25T04:32:01.649Z,74.90
2018-06-25T04:34:31.380Z,74.20
2018-06-25T04:37:01.068Z,74.60
2018-06-25T04:39:30.852Z,73.60
2018-06-25T04:42:00.612Z,72.70
2018-06-25T04:44:30.268Z,72.80
2018-06-25T04:47:00.113Z,73.40
2018-06-25T04:49:29.717Z,72.10
2018-06-25T04:51:59.513Z,72.10
2018-06-25T04:54:29.762Z,71.30
2018-06-25T04:56:59.480Z,70.70
2018-06-25T04:59:29.172Z,69.80
2018-06-25T05:01:58.817Z,71.00
2018-06-25T05:04:28.507Z,71.90
2018-06-25T05:06:58.212Z,71.60
2018-06-25T05:09:28.248Z,71.90
2018-06-25T05:11:58.062Z,72.00
2018-06-25T05:14:27.860Z,72.00
2018-06-25T05:16:57.652Z,74.40
2018-06-25T05:19:27.343Z,72.30
2018-06-25T05:21:56.989Z,72.20
2018-06-25T05:24:27.068Z,72.30
2018-06-25T05:26:56.796Z,71.50
2018-06-25T05:29:26.580Z,73.30
2018-06-25T05:31:56.219Z,72.10
2018-06-25T05:34:25.849Z,71.30
2018-06-25T05:36:55.644Z,70.90
2018-06-25T05:39:25.339Z,70.90
2018-06-25T05:41:55.081Z,71.30
2018-06-25T05:44:24.788Z,71.60
2018-06-25T05:46:54.657Z,70.40
2018-06-25T05:49:24.332Z,68.90
2018-06-25T05:51:54.000Z,70.70
2018-06-25T05:54:23.805Z,69.70
2018-06-25T05:56:53.357Z,70.00
2018-06-25T05:59:23.105Z,69.60
2018-06-25T06:01:53.221Z,69.00
2018-06-25T06:04:23.037Z,69.90
2018-06-25T06:09:21.780Z,69.40
2018-06-25T06:11:51.757Z,70.20
2018-06-25T06:16:50.597Z,69.90
2018-06-25T06:19:20.274Z,71.20
2018-06-25T06:21:49.826Z,70.20
2018-06-25T06:24:19.667Z,69.70
2018-06-25T06:26:49.516Z,68.90
2018-06-25T06:29:19.132Z,69.70
2018-06-25T06:31:48.967Z,70.30
2018-06-25T06:34:18.665Z,69.20
2018-06-25T06:36:48.545Z,68.40
2018-06-25T06:39:18.284Z,67.60
2018-06-25T06:41:47.869Z,68.70
2018-06-25T06:44:17.629Z,67.40
2018-06-25T06:46:47.424Z,69.30
2018-06-25T06:49:17.245Z,68.40
2018-06-25T06:51:47.169Z,67.90
2018-06-25T06:54:17.028Z,68.50
2018-06-25T06:56:46.672Z,69.70
2018-06-25T06:59:16.309Z,69.60
2018-06-25T07:01:46.004Z,67.80
2018-06-25T07:04:15.839Z,67.40
2018-06-25T07:06:45.721Z,67.90
2018-06-25T07:09:15.439Z,67.50
2018-06-25T07:11:45.297Z,66.80
2018-06-25T07:14:15.069Z,67.60
2018-06-25T07:16:44.860Z,67.60
2018-06-25T07:19:14.428Z,67.80
2018-06-25T07:21:44.090Z,66.60
2018-06-25T07:24:13.835Z,69.40
2018-06-25T07:26:43.566Z,67.80
2018-06-25T07:29:13.468Z,67.10
2018-06-25T07:31:43.241Z,66.70
2018-06-25T07:34:12.925Z,68.30
2018-06-25T07:36:42.704Z,66.00
2018-06-25T07:39:12.436Z,67.00
2018-06-25T07:41:42.234Z,67.20
2018-06-25T07:44:11.996Z,67.00
2018-06-25T07:46:41.953Z,66.00
2018-06-25T07:49:11.685Z,63.80
2018-06-25T07:51:41.373Z,63.70
2018-06-25T07:54:11.112Z,64.50
2018-06-25T07:56:40.789Z,65.50
2018-06-25T07:59:10.453Z,63.80
2018-06-25T08:01:40.244Z,62.90
2018-06-25T08:04:09.972Z,64.60
2018-06-25T08:06:39.808Z,64.70
2018-06-25T08:09:11.109Z,62.10
2018-06-25T08:11:40.956Z,61.10
2018-06-25T08:14:10.744Z,60.60
2018-06-25T08:16:40.506Z,59.60
2018-06-25T08:19:10.245Z,60.50
2018-06-25T08:24:08.931Z,59.80
2018-06-25T08:26:38.806Z,59.40
2018-06-25T08:29:08.688Z,57.40
2018-06-25T08:31:38.312Z,58.10
2018-06-25T08:34:08.118Z,57.20
2018-06-25T08:36:38.037Z,56.80
2018-06-25T08:39:11.200Z,57.30
2018-06-25T08:41:41.323Z,54.80
2018-06-25T08:44:10.972Z,55.30
2018-06-25T08:46:40.848Z,56.90
2018-06-25T08:49:10.868Z,53.90
2018-06-25T08:51:40.614Z,55.40
2018-06-25T08:54:10.907Z,55.60
2018-06-25T08:56:40.382Z,54.20
2018-06-25T08:59:10.448Z,56.00
2018-06-25T09:01:40.476Z,54.90
2018-06-25T09:04:10.162Z,54.10
2018-06-25T09:06:40.123Z,53.40
2018-06-25T09:09:11.664Z,55.60
2018-06-25T09:11:42.493Z,55.30
2018-06-25T09:14:11.925Z,54.70
2018-06-25T09:16:43.759Z,55.10
2018-06-25T09:19:15.272Z,54.70
2018-06-25T09:21:44.695Z,55.10
2018-06-25T09:24:14.632Z,56.10
2018-06-25T09:26:44.637Z,54.40
2018-06-25T09:29:16.199Z,55.40
2018-06-25T09:31:46.410Z,55.90
2018-06-25T09:34:21.680Z,54.40
2018-06-25T09:36:51.605Z,55.50
2018-06-25T09:39:23.243Z,53.80
2018-06-25T09:41:53.579Z,55.40
2018-06-25T09:44:23.613Z,55.80
2018-06-25T09:46:53.730Z,53.30
2018-06-25T09:49:24.402Z,54.60
2018-06-25T09:51:54.124Z,55.40
2018-06-25T09:54:23.550Z,55.80
2018-06-25T09:56:54.382Z,55.90
2018-06-25T09:59:24.329Z,54.20
2018-06-25T10:01:55.107Z,55.10
2018-06-25T10:04:25.711Z,55.30
2018-06-25T10:06:56.880Z,53.20
2018-06-25T10:09:26.554Z,52.00
2018-06-25T10:11:57.159Z,50.60
2018-06-25T10:14:27.909Z,50.20
2018-06-25T10:19:29.203Z,49.10
2018-06-25T10:21:59.893Z,49.30
2018-06-25T10:24:29.815Z,49.60
2018-06-25T10:26:59.178Z,51.10
2018-06-25T10:29:28.536Z,50.20
2018-06-25T10:31:57.901Z,52.40
2018-06-25T10:34:27.784Z,54.10
2018-06-25T10:36:57.714Z,53.70
2018-06-25T10:39:27.622Z,54.70
2018-06-25T10:41:57.008Z,54.90
2018-06-25T10:44:26.899Z,57.50
2018-06-25T10:46:56.268Z,55.20
2018-06-25T10:49:25.692Z,58.10
2018-06-25T10:51:55.113Z,57.10
2018-06-25T10:54:24.638Z,58.50
2018-06-25T10:56:54.028Z,59.20
2018-06-25T10:59:23.437Z,58.90
2018-06-25T11:01:53.253Z,58.80
2018-06-25T11:04:23.036Z,58.00
2018-06-25T11:06:52.451Z,58.70
2018-06-25T11:09:23.403Z,59.20
2018-06-25T11:11:53.190Z,58.50
2018-06-25T11:16:52.133Z,58.60
2018-06-25T11:19:21.557Z,57.10
2018-06-25T11:21:51.314Z,55.90
2018-06-25T11:24:20.696Z,58.00
2018-06-25T11:26:50.168Z,56.50
2018-06-25T11:29:19.765Z,58.60
2018-06-25T11:31:49.544Z,57.90
2018-06-25T11:34:19.702Z,57.60
2018-06-25T11:36:49.818Z,59.20
2018-06-25T11:39:19.175Z,55.90
2018-06-25T11:41:48.919Z,56.90
2018-06-25T11:44:18.278Z,56.60
2018-06-25T11:46:47.670Z,58.30
2018-06-25T11:49:17.039Z,57.90
2018-06-25T11:51:46.406Z,55.90
2018-06-25T11:54:15.808Z,54.30
2018-06-25T11:56:45.164Z,54.10
2018-06-25T11:59:14.669Z,53.80
2018-06-25T12:01:44.949Z,54.40
2018-06-25T12:04:15.515Z,53.60
2018-06-25T12:06:45.583Z,51.70
2018-06-25T12:09:16.030Z,50.80
2018-06-25T12:11:45.836Z,50.00
2018-06-25T12:14:15.282Z,49.60
2018-06-25T12:16:44.686Z,48.80
2018-06-25T12:19:14.077Z,50.00
2018-06-25T12:21:43.485Z,48.20
2018-06-25T12:24:12.868Z,49.50
2018-06-25T12:26:42.253Z,48.10
2018-06-25T12:29:11.621Z,48.70
2018-06-25T12:31:41.046Z,48.70
2018-06-25T12:34:10.837Z,47.30
2018-06-25T12:36:40.215Z,49.40
2018-06-25T12:39:10.744Z,48.90
2018-06-25T12:41:40.764Z,51.40
2018-06-25T12:44:10.131Z,51.20
2018-06-25T12:46:40.262Z,49.40
2018-06-25T12:49:09.649Z,51.00
2018-06-25T12:51:39.049Z,53.00
2018-06-25T12:54:08.764Z,54.00
2018-06-25T12:56:38.161Z,50.60
2018-06-25T12:59:07.556Z,52.00
2018-06-25T13:01:36.985Z,50.30
2018-06-25T13:04:06.559Z,48.60
2018-06-25T13:06:35.908Z,52.30
2018-06-25T13:09:07.889Z,51.40
2018-06-25T13:11:37.444Z,51.90
2018-06-25T13:14:06.886Z,51.90
2018-06-25T13:16:36.609Z,52.40
2018-06-25T13:19:06.168Z,49.60
2018-06-25T13:21:35.536Z,50.00
2018-06-25T13:24:05.025Z,47.90
2018-06-25T13:26:34.408Z,48.50
2018-06-25T13:29:03.868Z,47.70
2018-06-25T13:31:33.273Z,51.30
2018-06-25T13:34:02.640Z,48.70
2018-06-25T13:36:32.033Z,50.10
2018-06-25T13:39:01.439Z,52.50
2018-06-25T13:41:30.876Z,51.70
2018-06-25T13:44:00.313Z,52.60
2018-06-25T13:46:29.687Z,49.00
2018-06-25T13:48:59.060Z,54.20
2018-06-25T13:51:28.425Z,51.70
2018-06-25T13:53:57.794Z,53.30
2018-06-25T13:56:27.147Z,54.10
2018-06-25T13:58:56.546Z,51.20
2018-06-25T14:01:25.972Z,53.60
2018-06-25T14:03:55.404Z,54.70
2018-06-25T14:06:24.795Z,53.00
2018-06-25T14:08:54.153Z,53.40
2018-06-25T14:11:23.603Z,53.50
2018-06-25T14:13:52.946Z,52.90
2018-06-25T14:16:22.595Z,54.50
2018-06-25T14:18:51.952Z,53.00
2018-06-25T14:21:21.401Z,51.90
2018-06-25T14:23:55.771Z,52.60
2018-06-25T14:26:29.298Z,53.30
2018-06-25T14:28:58.684Z,52.30
2018-06-25T14:31:28.924Z,53.70
2018-06-25T14:34:03.427Z,51.70
2018-06-25T14:36:32.821Z,50.30
2018-06-25T14:39:02.249Z,50.10
2018-06-25T14:41:31.609Z,54.40
2018-06-25T14:44:01.003Z,53.80
2018-06-25T14:46:30.392Z,53.90
2018-06-25T14:49:00.043Z,55.60
2018-06-25T14:51:29.478Z,53.90
2018-06-25T14:53:58.904Z,53.40
2018-06-25T14:56:28.455Z,54.00
2018-06-25T14:58:57.849Z,54.60
2018-06-25T15:01:27.248Z,52.20
2018-06-25T15:03:56.604Z,54.00
2018-06-25T15:06:25.987Z,53.30
2018-06-25T15:08:55.389Z,51.70
2018-06-25T15:11:24.764Z,51.30
2018-06-25T15:13:54.142Z,50.60
2018-06-25T15:16:23.544Z,50.30
2018-06-25T15:18:52.924Z,53.00
2018-06-25T15:21:22.277Z,50.50
2018-06-25T15:23:51.721Z,50.20
2018-06-25T15:26:21.094Z,52.00
2018-06-25T15:28:50.568Z,50.40
2018-06-25T15:31:20.022Z,51.50
2018-06-25T15:33:49.388Z,52.30
2018-06-25T15:36:18.782Z,50.70
2018-06-25T15:38:48.157Z,50.90
2018-06-25T15:41:17.522Z,51.50
2018-06-25T15:43:46.926Z,49.30
2018-06-25T15:46:16.341Z,51.70
2018-06-25T15:48:45.798Z,51.50
2018-06-25T15:51:15.217Z,50.90
2018-06-25T15:53:44.686Z,50.50
2018-06-25T15:56:14.140Z,51.40
2018-06-25T15:58:43.660Z,50.90
2018-06-25T16:01:13.051Z,51.20
2018-06-25T16:03:42.431Z,52.90
2018-06-25T16:06:11.871Z,52.50
2018-06-25T16:08:41.272Z,51.80
2018-06-25T16:11:10.680Z,53.50
2018-06-25T16:13:40.184Z,54.60
2018-06-25T16:16:09.583Z,51.70
2018-06-25T16:18:38.960Z,52.90
2018-06-25T16:21:08.345Z,55.50
2018-06-25T16:23:37.763Z,54.80
2018-06-25T16:26:07.226Z,56.60
2018-06-25T16:28:36.614Z,58.20
2018-06-25T16:31:06.084Z,54.60
2018-06-25T16:33:35.449Z,55.90
2018-06-25T16:36:04.925Z,53.70
2018-06-25T16:38:34.301Z,53.20
2018-06-25T16:41:03.689Z,56.30
2018-06-25T16:43:33.115Z,55.10
2018-06-25T16:46:02.521Z,53.90
2018-06-25T16:48:31.892Z,55.00
2018-06-25T16:51:01.269Z,56.80
2018-06-25T16:53:30.621Z,56.20
2018-06-25T16:55:59.998Z,57.20
2018-06-25T16:58:29.444Z,56.40
2018-06-25T17:00:59.074Z,55.10
2018-06-25T17:03:28.464Z,54.00
2018-06-25T17:05:57.838Z,57.90
2018-06-25T17:08:27.215Z,56.90
2018-06-25T17:10:56.777Z,57.40
2018-06-25T17:13:26.136Z,55.80
2018-06-25T17:15:55.622Z,57.00
2018-06-25T17:18:25.017Z,56.80
2018-06-25T17:20:54.400Z,56.30
2018-06-25T17:23:23.824Z,58.30
2018-06-25T17:25:53.192Z,57.50
2018-06-25T17:28:22.547Z,57.50
2018-06-25T17:30:51.912Z,57.30
2018-06-25T17:33:21.314Z,59.10
2018-06-25T17:35:51.698Z,56.60
2018-06-25T17:38:21.053Z,56.90
2018-06-25T17:40:50.456Z,58.40
2018-06-25T17:43:19.897Z,57.70
2018-06-25T17:45:49.685Z,58.20
2018-06-25T17:50:47.936Z,56.00
2018-06-25T17:53:17.297Z,56.70
2018-06-25T17:55:46.652Z,56.30
2018-06-25T17:58:16.015Z,57.70
2018-06-25T18:00:45.445Z,57.00
2018-06-25T18:03:14.809Z,57.40
2018-06-25T18:05:44.232Z,58.50
2018-06-25T18:08:13.605Z,57.60
2018-06-25T18:10:42.993Z,56.70
2018-06-25T18:13:12.351Z,58.40
2018-06-25T18:15:41.712Z,59.10
2018-06-25T18:18:11.129Z,58.10
2018-06-25T18:20:40.566Z,59.40
2018-06-25T18:23:10.046Z,57.50
2018-06-25T18:25:39.392Z,58.00
2018-06-25T18:28:08.772Z,59.10
2018-06-25T18:30:38.662Z,57.80
2018-06-25T18:33:08.043Z,58.40
2018-06-25T18:35:37.499Z,57.60
2018-06-25T18:38:06.952Z,56.80
2018-06-25T18:40:36.343Z,59.50
2018-06-25T18:43:05.717Z,58.70
2018-06-25T18:45:35.110Z,58.70
2018-06-25T18:48:04.597Z,57.50
2018-06-25T18:50:34.404Z,57.70
2018-06-25T18:53:04.310Z,59.40
2018-06-25T18:55:33.690Z,59.20
2018-06-25T18:58:03.062Z,58.30
2018-06-25T19:00:32.439Z,58.60
2018-06-25T19:03:01.800Z,59.60
2018-06-25T19:05:31.203Z,59.00
2018-06-25T19:08:00.604Z,57.00
2018-06-25T19:10:30.262Z,59.50
2018-06-25T19:12:59.794Z,58.40
2018-06-25T19:15:29.171Z,59.50
2018-06-25T19:17:58.605Z,58.10
2018-06-25T19:20:28.059Z,57.70
2018-06-25T19:22:57.421Z,56.70
2018-06-25T19:25:26.862Z,57.80
2018-06-25T19:27:56.248Z,57.60
2018-06-25T19:30:25.673Z,58.70
2018-06-25T19:32:55.040Z,57.50
2018-06-25T19:35:24.441Z,56.60
2018-06-25T19:37:53.833Z,57.70
2018-06-25T19:40:23.290Z,58.60
2018-06-25T19:42:52.667Z,58.90
2018-06-25T19:45:22.060Z,56.90
2018-06-25T19:47:51.462Z,58.70
2018-06-25T19:50:20.833Z,58.60
2018-06-25T19:52:50.269Z,58.60
2018-06-25T19:55:19.732Z,57.20
2018-06-25T19:57:49.129Z,57.00
2018-06-25T20:00:18.538Z,57.70
2018-06-25T20:02:47.963Z,58.30
2018-06-25T20:05:17.313Z,57.80
2018-06-25T20:07:46.712Z,58.40
2018-06-25T20:10:16.129Z,59.10
2018-06-25T20:12:45.504Z,59.00
2018-06-25T20:15:14.918Z,57.80
2018-06-25T20:17:44.297Z,57.90
2018-06-25T20:20:13.787Z,57.40
2018-06-25T20:22:43.176Z,59.20
2018-06-25T20:25:12.591Z,57.40
2018-06-25T20:27:42.008Z,59.20
2018-06-25T20:30:11.764Z,58.20
2018-06-25T20:32:41.139Z,58.80
2018-06-25T20:35:10.770Z,58.10
2018-06-25T20:37:40.685Z,59.50
2018-06-25T20:40:10.036Z,58.20
2018-06-25T20:42:39.432Z,59.00
2018-06-25T20:45:08.845Z,59.20
2018-06-25T20:47:38.223Z,59.30
2018-06-25T20:50:07.928Z,59.40
2018-06-25T20:52:37.305Z,59.30
2018-06-25T20:55:06.677Z,60.20
2018-06-25T20:57:36.072Z,59.70
2018-06-25T21:00:05.764Z,59.60
2018-06-25T21:02:35.256Z,59.70
2018-06-25T21:05:04.919Z,61.30
2018-06-25T21:07:34.457Z,61.00
2018-06-25T21:10:03.966Z,61.10
2018-06-25T21:12:33.380Z,60.80
2018-06-25T21:15:02.747Z,60.40
2018-06-25T21:17:32.156Z,60.40
2018-06-25T21:20:01.523Z,61.20
2018-06-25T21:22:30.901Z,60.40
2018-06-25T21:25:00.281Z,60.80
2018-06-25T21:27:29.656Z,62.10
2018-06-25T21:29:59.848Z,60.80
2018-06-25T21:32:29.229Z,61.40
2018-06-25T21:34:58.895Z,60.10
2018-06-25T21:37:28.877Z,62.50
2018-06-25T21:39:58.254Z,62.70
2018-06-25T21:42:27.844Z,61.30
2018-06-25T21:44:57.479Z,63.50
2018-06-25T21:47:26.892Z,61.50
2018-06-25T21:49:56.580Z,61.40
2018-06-25T21:52:25.960Z,62.60
2018-06-25T21:54:55.412Z,62.00
2018-06-25T21:57:24.798Z,61.90
2018-06-25T21:59:54.179Z,61.00
2018-06-25T22:02:23.558Z,62.10
2018-06-25T22:04:52.969Z,61.70
2018-06-25T22:07:22.377Z,62.30
2018-06-25T22:09:51.744Z,62.90
2018-06-25T22:12:21.102Z,63.00
2018-06-25T22:14:50.477Z,61.60
2018-06-25T22:17:19.851Z,61.90
2018-06-25T22:19:49.209Z,63.10
2018-06-25T22:22:18.976Z,63.10
2018-06-25T22:24:48.759Z,61.40
2018-06-25T22:27:18.396Z,63.30
2018-06-25T22:29:48.371Z,62.50
2018-06-25T22:32:18.229Z,63.10
2018-06-25T22:34:47.920Z,63.00
2018-06-25T22:37:17.701Z,62.70
2018-06-25T22:39:47.357Z,62.70
2018-06-25T22:42:17.129Z,63.20
2018-06-25T22:44:46.873Z,63.20
2018-06-25T22:47:16.388Z,63.10
2018-06-25T22:49:46.354Z,63.10
2018-06-25T22:52:16.122Z,63.10
2018-06-25T22:54:46.733Z,63.10
2018-06-25T22:57:16.345Z,63.70
2018-06-25T22:59:46.162Z,64.10
2018-06-25T23:02:15.778Z,63.10
2018-06-25T23:04:45.596Z,64.00
2018-06-25T23:07:15.288Z,63.80
2018-06-25T23:09:45.077Z,65.40
2018-06-25T23:12:14.809Z,64.60
2018-06-25T23:14:44.496Z,63.90
2018-06-25T23:17:14.185Z,64.70
2018-06-25T23:19:43.738Z,63.10
2018-06-25T23:22:13.507Z,63.60
2018-06-25T23:24:43.156Z,64.60
2018-06-25T23:27:12.860Z,64.20
2018-06-25T23:29:42.529Z,65.90
2018-06-25T23:32:12.183Z,66.00
2018-06-25T23:34:41.956Z,64.60
2018-06-25T23:37:11.709Z,64.70
2018-06-25T23:39:41.396Z,65.30
2018-06-25T23:42:11.135Z,63.40
2018-06-25T23:44:40.846Z,63.30
2018-06-25T23:47:10.508Z,63.80
2018-06-25T23:49:40.258Z,64.10
2018-06-25T23:52:10.017Z,63.90
2018-06-25T23:54:39.805Z,64.20
2018-06-25T23:57:09.598Z,64.10
2018-06-25T23:59:39.292Z,63.80
